sensor_id;sensor_type;location;lat;lon;timestamp;P1;durP1;ratioP1;P2;durP2;ratioP2
4246;SDS011;2137;52.564;10.062;2022-09-14T16:27:36;1.77;;;0.20;;
4246;SDS011;2137;52.564;10.062;2022-09-14T16:27:53;2.08;;;1.02;;
4246;SDS011;2137;52.564;10.062;2022-09-14T16:28:09;2.47;;;1.40;;
4246;SDS011;2137;52.564;10.062;2022-09-14T16:28:26;3.20;;;1.88;;
4246;SDS011;2137;52.564;10.062;2022-09-14T16:28:43;3.95;;;1.85;;
4246;SDS011;2137;52.564;10.062;2022-09-14T16:29:02;2.88;;;0.35;;
4246;SDS011;2137;52.564;10.062;2022-09-14T16:29:20;2.90;;;0.32;;
4246;SDS011;2137;52.564;10.062;2022-09-14T16:29:36;2.40;;;0.30;;
4246;SDS011;2137;52.564;10.062;2022-09-14T16:29:54;2.60;;;0.30;;
4246;SDS011;2137;52.564;10.062;2022-09-14T16:30:11;1.40;;;0.30;;
4246;SDS011;2137;52.564;10.062;2022-09-14T16:30:28;2.35;;;0.30;;
4246;SDS011;2137;52.564;10.062;2022-09-14T16:30:45;2.70;;;0.30;;
4246;SDS011;2137;52.564;10.062;2022-09-14T16:31:03;1.38;;;0.32;;
4246;SDS011;2137;52.564;10.062;2022-09-14T16:31:20;1.35;;;0.30;;
4246;SDS011;2137;52.564;10.062;2022-09-14T16:31:38;1.50;;;0.50;;
4246;SDS011;2137;52.564;10.062;2022-09-14T16:31:54;1.42;;;0.52;;
4246;SDS011;2137;52.564;10.062;2022-09-14T16:32:12;2.58;;;0.40;;
4246;SDS011;2137;52.564;10.062;2022-09-14T16:32:29;2.67;;;0.40;;
4246;SDS011;2137;52.564;10.062;2022-09-14T16:32:45;1.10;;;0.40;;
4246;SDS011;2137;52.564;10.062;2022-09-14T16:33:02;1.25;;;0.47;;
4246;SDS011;2137;52.564;10.062;2022-09-14T16:33:18;1.45;;;0.30;;
4246;SDS011;2137;52.564;10.062;2022-09-14T16:33:36;2.80;;;0.32;;
4246;SDS011;2137;52.564;10.062;2022-09-14T16:33:54;2.63;;;0.25;;
4246;SDS011;2137;52.564;10.062;2022-09-14T16:34:12;2.00;;;0.20;;
4246;SDS011;2137;52.564;10.062;2022-09-14T16:34:29;1.52;;;0.35;;
4246;SDS011;2137;52.564;10.062;2022-09-14T16:34:46;0.90;;;0.40;;
4246;SDS011;2137;52.564;10.062;2022-09-14T16:35:04;1.63;;;0.28;;
4246;SDS011;2137;52.564;10.062;2022-09-14T16:35:23;1.70;;;0.28;;
4246;SDS011;2137;52.564;10.062;2022-09-14T16:35:40;2.78;;;0.20;;
4246;SDS011;2137;52.564;10.062;2022-09-14T16:36:03;4.30;;;0.20;;
4246;SDS011;2137;52.564;10.062;2022-09-14T16:36:22;3.50;;;0.25;;
4246;SDS011;2137;52.564;10.062;2022-09-14T16:36:43;4.60;;;0.40;;
4246;SDS011;2137;52.564;10.062;2022-09-14T16:37:00;2.50;;;0.30;;
4246;SDS011;2137;52.564;10.062;2022-09-14T16:37:16;2.15;;;0.30;;
4246;SDS011;2137;52.564;10.062;2022-09-14T16:37:34;2.38;;;0.30;;
4246;SDS011;2137;52.564;10.062;2022-09-14T16:37:50;1.88;;;0.20;;
4246;SDS011;2137;52.564;10.062;2022-09-14T16:38:07;1.17;;;0.22;;
4246;SDS011;2137;52.564;10.062;2022-09-14T16:38:24;0.80;;;0.20;;
4246;SDS011;2137;52.564;10.062;2022-09-14T16:38:40;2.00;;;0.12;;
4246;SDS011;2137;52.564;10.062;2022-09-14T16:38:59;3.22;;;0.28;;
4246;SDS011;2137;52.564;10.062;2022-09-14T16:39:16;2.50;;;0.30;;
4246;SDS011;2137;52.564;10.062;2022-09-14T16:39:33;1.13;;;0.22;;
4246;SDS011;2137;52.564;10.062;2022-09-14T16:39:50;0.50;;;0.20;;
4246;SDS011;2137;52.564;10.062;2022-09-14T16:40:08;2.80;;;0.30;;
4246;SDS011;2137;52.564;10.062;2022-09-14T16:40:25;3.60;;;0.60;;
4246;SDS011;2137;52.564;10.062;2022-09-14T16:40:41;2.53;;;0.57;;
4246;SDS011;2137;52.564;10.062;2022-09-14T16:40:58;1.70;;;0.20;;
4246;SDS011;2137;52.564;10.062;2022-09-14T16:41:15;1.02;;;0.20;;
4246;SDS011;2137;52.564;10.062;2022-09-14T16:41:32;1.45;;;0.25;;
4246;SDS011;2137;52.564;10.062;2022-09-14T16:41:51;1.42;;;0.20;;
4246;SDS011;2137;52.564;10.062;2022-09-14T16:42:09;1.38;;;0.20;;
4246;SDS011;2137;52.564;10.062;2022-09-14T16:42:25;1.10;;;0.20;;
4246;SDS011;2137;52.564;10.062;2022-09-14T16:42:44;1.00;;;0.20;;
4246;SDS011;2137;52.564;10.062;2022-09-14T16:43:02;1.23;;;0.25;;
4246;SDS011;2137;52.564;10.062;2022-09-14T16:43:18;2.50;;;0.50;;
4246;SDS011;2137;52.564;10.062;2022-09-14T16:43:35;2.95;;;0.50;;
4246;SDS011;2137;52.564;10.062;2022-09-14T16:43:54;2.60;;;0.30;;
4246;SDS011;2137;52.564;10.062;2022-09-14T16:44:12;1.85;;;0.30;;
4246;SDS011;2137;52.564;10.062;2022-09-14T16:44:30;1.63;;;0.30;;
4246;SDS011;2137;52.564;10.062;2022-09-14T16:44:47;3.20;;;0.60;;
4246;SDS011;2137;52.564;10.062;2022-09-14T16:45:04;2.63;;;0.38;;
4246;SDS011;2137;52.564;10.062;2022-09-14T16:45:21;1.40;;;0.30;;
4246;SDS011;2137;52.564;10.062;2022-09-14T16:45:37;1.20;;;0.25;;
4246;SDS011;2137;52.564;10.062;2022-09-14T16:45:59;1.10;;;0.20;;
4246;SDS011;2137;52.564;10.062;2022-09-14T16:46:15;1.52;;;0.40;;
4246;SDS011;2137;52.564;10.062;2022-09-14T16:46:32;1.80;;;0.70;;
4246;SDS011;2137;52.564;10.062;2022-09-14T16:46:50;1.60;;;0.28;;
4246;SDS011;2137;52.564;10.062;2022-09-14T16:47:07;0.80;;;0.20;;
4246;SDS011;2137;52.564;10.062;2022-09-14T16:47:24;0.50;;;0.30;;
4246;SDS011;2137;52.564;10.062;2022-09-14T16:47:40;1.70;;;0.30;;
4246;SDS011;2137;52.564;10.062;2022-09-14T16:47:57;2.30;;;0.28;;
4246;SDS011;2137;52.564;10.062;2022-09-14T16:48:13;1.35;;;0.30;;
4246;SDS011;2137;52.564;10.062;2022-09-14T16:48:30;1.10;;;0.30;;
4246;SDS011;2137;52.564;10.062;2022-09-14T16:48:48;1.10;;;0.20;;
4246;SDS011;2137;52.564;10.062;2022-09-14T16:49:05;1.05;;;0.20;;
4246;SDS011;2137;52.564;10.062;2022-09-14T16:49:22;2.15;;;0.25;;
4246;SDS011;2137;52.564;10.062;2022-09-14T16:49:43;1.50;;;0.20;;
4246;SDS011;2137;52.564;10.062;2022-09-14T16:50:01;0.70;;;0.38;;
4246;SDS011;2137;52.564;10.062;2022-09-14T16:50:17;0.57;;;0.50;;
4246;SDS011;2137;52.564;10.062;2022-09-14T16:50:34;0.80;;;0.25;;
4246;SDS011;2137;52.564;10.062;2022-09-14T16:50:51;1.33;;;0.22;;
4246;SDS011;2137;52.564;10.062;2022-09-14T16:51:08;1.98;;;0.50;;
4246;SDS011;2137;52.564;10.062;2022-09-14T16:51:25;1.65;;;0.50;;
4246;SDS011;2137;52.564;10.062;2022-09-14T16:51:43;1.00;;;0.20;;
4246;SDS011;2137;52.564;10.062;2022-09-14T16:52:00;1.02;;;0.20;;
4246;SDS011;2137;52.564;10.062;2022-09-14T16:52:16;1.30;;;0.30;;
4246;SDS011;2137;52.564;10.062;2022-09-14T16:52:33;2.03;;;0.22;;
4246;SDS011;2137;52.564;10.062;2022-09-14T16:52:50;1.20;;;0.20;;
4246;SDS011;2137;52.564;10.062;2022-09-14T16:53:07;1.50;;;0.40;;
4246;SDS011;2137;52.564;10.062;2022-09-14T16:53:23;1.38;;;0.30;;
4246;SDS011;2137;52.564;10.062;2022-09-14T16:53:40;0.80;;;0.20;;
4246;SDS011;2137;52.564;10.062;2022-09-14T16:54:00;1.30;;;0.20;;
4246;SDS011;2137;52.564;10.062;2022-09-14T16:54:18;0.93;;;0.20;;
4246;SDS011;2137;52.564;10.062;2022-09-14T16:54:34;1.60;;;0.28;;
4246;SDS011;2137;52.564;10.062;2022-09-14T16:54:51;2.20;;;0.30;;
4246;SDS011;2137;52.564;10.062;2022-09-14T16:55:11;2.80;;;0.35;;
4246;SDS011;2137;52.564;10.062;2022-09-14T16:55:28;4.70;;;0.52;;
4246;SDS011;2137;52.564;10.062;2022-09-14T16:55:46;4.75;;;0.30;;
4246;SDS011;2137;52.564;10.062;2022-09-14T16:56:04;1.80;;;0.30;;
4246;SDS011;2137;52.564;10.062;2022-09-14T16:56:21;1.10;;;0.28;;
4246;SDS011;2137;52.564;10.062;2022-09-14T16:56:38;1.25;;;0.20;;
4246;SDS011;2137;52.564;10.062;2022-09-14T16:56:55;1.65;;;0.30;;
4246;SDS011;2137;52.564;10.062;2022-09-14T16:57:14;3.33;;;0.30;;
4246;SDS011;2137;52.564;10.062;2022-09-14T16:57:31;2.25;;;0.30;;
4246;SDS011;2137;52.564;10.062;2022-09-14T16:57:49;1.42;;;0.28;;
4246;SDS011;2137;52.564;10.062;2022-09-14T16:58:05;1.27;;;0.30;;
4246;SDS011;2137;52.564;10.062;2022-09-14T16:58:22;1.05;;;0.25;;
4246;SDS011;2137;52.564;10.062;2022-09-14T16:58:38;1.52;;;0.30;;
4246;SDS011;2137;52.564;10.062;2022-09-14T16:58:56;1.67;;;0.47;;
4246;SDS011;2137;52.564;10.062;2022-09-14T16:59:12;1.15;;;0.50;;
4246;SDS011;2137;52.564;10.062;2022-09-14T16:59:30;2.45;;;0.30;;
4246;SDS011;2137;52.564;10.062;2022-09-14T16:59:47;2.00;;;0.20;;
4246;SDS011;2137;52.564;10.062;2022-09-14T17:00:05;0.65;;;0.17;;
4246;SDS011;2137;52.564;10.062;2022-09-14T17:00:22;0.77;;;0.20;;
4246;SDS011;2137;52.564;10.062;2022-09-14T17:00:38;1.50;;;0.30;;
4246;SDS011;2137;52.564;10.062;2022-09-14T17:01:02;2.38;;;0.50;;
4246;SDS011;2137;52.564;10.062;2022-09-14T17:01:20;1.05;;;0.30;;
4246;SDS011;2137;52.564;10.062;2022-09-14T17:01:39;1.00;;;0.30;;
4246;SDS011;2137;52.564;10.062;2022-09-14T17:01:56;1.17;;;0.30;;
4246;SDS011;2137;52.564;10.062;2022-09-14T17:02:13;0.80;;;0.30;;
4246;SDS011;2137;52.564;10.062;2022-09-14T17:02:29;1.02;;;0.20;;
4246;SDS011;2137;52.564;10.062;2022-09-14T17:02:49;1.42;;;0.25;;
4246;SDS011;2137;52.564;10.062;2022-09-14T17:03:06;1.60;;;0.40;;
4246;SDS011;2137;52.564;10.062;2022-09-14T17:03:24;1.13;;;0.32;;
4246;SDS011;2137;52.564;10.062;2022-09-14T17:03:48;1.60;;;0.60;;
4246;SDS011;2137;52.564;10.062;2022-09-14T17:04:05;1.98;;;0.60;;
4246;SDS011;2137;52.564;10.062;2022-09-14T17:04:23;2.17;;;0.30;;
4246;SDS011;2137;52.564;10.062;2022-09-14T17:04:40;2.85;;;0.35;;
4246;SDS011;2137;52.564;10.062;2022-09-14T17:04:56;2.40;;;0.40;;
4246;SDS011;2137;52.564;10.062;2022-09-14T17:05:13;1.40;;;0.28;;
4246;SDS011;2137;52.564;10.062;2022-09-14T17:05:31;5.72;;;0.30;;
4246;SDS011;2137;52.564;10.062;2022-09-14T17:05:47;4.72;;;0.28;;
4246;SDS011;2137;52.564;10.062;2022-09-14T17:06:05;2.17;;;0.38;;
4246;SDS011;2137;52.564;10.062;2022-09-14T17:06:24;1.88;;;0.30;;
4246;SDS011;2137;52.564;10.062;2022-09-14T17:06:41;2.14;;;0.30;;
4246;SDS011;2137;52.564;10.062;2022-09-14T17:06:58;1.48;;;0.25;;
4246;SDS011;2137;52.564;10.062;2022-09-14T17:07:16;0.57;;;0.20;;
4246;SDS011;2137;52.564;10.062;2022-09-14T17:07:32;0.90;;;0.30;;
4246;SDS011;2137;52.564;10.062;2022-09-14T17:07:49;0.80;;;0.20;;
4246;SDS011;2137;52.564;10.062;2022-09-14T17:08:05;2.88;;;0.22;;
4246;SDS011;2137;52.564;10.062;2022-09-14T17:08:22;5.65;;;0.38;;
4246;SDS011;2137;52.564;10.062;2022-09-14T17:08:40;1.45;;;0.22;;
4246;SDS011;2137;52.564;10.062;2022-09-14T17:09:00;0.60;;;0.20;;
4246;SDS011;2137;52.564;10.062;2022-09-14T17:09:18;2.00;;;0.20;;
4246;SDS011;2137;52.564;10.062;2022-09-14T17:09:35;3.25;;;0.30;;
4246;SDS011;2137;52.564;10.062;2022-09-14T17:09:53;2.63;;;0.40;;
4246;SDS011;2137;52.564;10.062;2022-09-14T17:10:09;7.22;;;0.40;;
4246;SDS011;2137;52.564;10.062;2022-09-14T17:10:26;6.40;;;0.40;;
4246;SDS011;2137;52.564;10.062;2022-09-14T17:10:44;3.53;;;0.38;;
4246;SDS011;2137;52.564;10.062;2022-09-14T17:11:01;0.63;;;0.20;;
4246;SDS011;2137;52.564;10.062;2022-09-14T17:11:19;0.60;;;0.20;;
4246;SDS011;2137;52.564;10.062;2022-09-14T17:11:37;1.08;;;0.30;;
4246;SDS011;2137;52.564;10.062;2022-09-14T17:11:54;0.85;;;0.28;;
4246;SDS011;2137;52.564;10.062;2022-09-14T17:12:11;3.20;;;0.25;;
4246;SDS011;2137;52.564;10.062;2022-09-14T17:12:28;1.98;;;0.20;;
4246;SDS011;2137;52.564;10.062;2022-09-14T17:12:46;2.20;;;0.30;;
4246;SDS011;2137;52.564;10.062;2022-09-14T17:13:04;2.72;;;0.30;;
4246;SDS011;2137;52.564;10.062;2022-09-14T17:13:21;2.33;;;0.38;;
4246;SDS011;2137;52.564;10.062;2022-09-14T17:13:38;2.17;;;0.40;;
4246;SDS011;2137;52.564;10.062;2022-09-14T17:13:55;1.67;;;0.30;;
4246;SDS011;2137;52.564;10.062;2022-09-14T17:14:13;1.30;;;0.30;;
4246;SDS011;2137;52.564;10.062;2022-09-14T17:14:30;0.68;;;0.32;;
4246;SDS011;2137;52.564;10.062;2022-09-14T17:14:47;0.50;;;0.20;;
4246;SDS011;2137;52.564;10.062;2022-09-14T17:15:04;1.23;;;0.20;;
4246;SDS011;2137;52.564;10.062;2022-09-14T17:15:20;2.65;;;0.40;;
4246;SDS011;2137;52.564;10.062;2022-09-14T17:15:38;2.00;;;0.40;;
4246;SDS011;2137;52.564;10.062;2022-09-14T17:15:58;1.77;;;0.40;;
4246;SDS011;2137;52.564;10.062;2022-09-14T17:16:16;1.85;;;0.40;;
4246;SDS011;2137;52.564;10.062;2022-09-14T17:16:34;1.63;;;0.17;;
4246;SDS011;2137;52.564;10.062;2022-09-14T17:16:51;1.55;;;0.30;;
4246;SDS011;2137;52.564;10.062;2022-09-14T17:17:08;1.67;;;0.20;;
4246;SDS011;2137;52.564;10.062;2022-09-14T17:17:25;2.95;;;0.30;;
4246;SDS011;2137;52.564;10.062;2022-09-14T17:17:41;3.75;;;0.40;;
4246;SDS011;2137;52.564;10.062;2022-09-14T17:17:58;4.45;;;0.40;;
4246;SDS011;2137;52.564;10.062;2022-09-14T17:18:15;3.75;;;0.43;;
4246;SDS011;2137;52.564;10.062;2022-09-14T17:18:33;3.22;;;0.60;;
4246;SDS011;2137;52.564;10.062;2022-09-14T17:18:51;3.35;;;0.47;;
4246;SDS011;2137;52.564;10.062;2022-09-14T17:19:08;3.47;;;0.40;;
4246;SDS011;2137;52.564;10.062;2022-09-14T17:19:25;3.30;;;0.40;;
4246;SDS011;2137;52.564;10.062;2022-09-14T17:19:42;2.42;;;0.22;;
4246;SDS011;2137;52.564;10.062;2022-09-14T17:19:59;4.65;;;0.40;;
4246;SDS011;2137;52.564;10.062;2022-09-14T17:20:16;4.05;;;0.40;;
4246;SDS011;2137;52.564;10.062;2022-09-14T17:20:32;2.17;;;0.30;;
4246;SDS011;2137;52.564;10.062;2022-09-14T17:20:52;1.58;;;0.32;;
4246;SDS011;2137;52.564;10.062;2022-09-14T17:21:11;5.03;;;0.40;;
4246;SDS011;2137;52.564;10.062;2022-09-14T17:21:28;6.30;;;0.50;;
4246;SDS011;2137;52.564;10.062;2022-09-14T17:21:45;2.50;;;0.50;;
4246;SDS011;2137;52.564;10.062;2022-09-14T17:22:02;1.30;;;0.30;;
4246;SDS011;2137;52.564;10.062;2022-09-14T17:22:20;1.38;;;0.40;;
4246;SDS011;2137;52.564;10.062;2022-09-14T17:22:36;2.33;;;0.65;;
4246;SDS011;2137;52.564;10.062;2022-09-14T17:22:53;1.88;;;0.50;;
4246;SDS011;2137;52.564;10.062;2022-09-14T17:23:09;0.73;;;0.30;;
4246;SDS011;2137;52.564;10.062;2022-09-14T17:23:26;2.10;;;0.40;;
4246;SDS011;2137;52.564;10.062;2022-09-14T17:23:44;2.35;;;0.50;;
4246;SDS011;2137;52.564;10.062;2022-09-14T17:24:01;1.75;;;0.40;;
4246;SDS011;2137;52.564;10.062;2022-09-14T17:24:19;3.00;;;0.47;;
4246;SDS011;2137;52.564;10.062;2022-09-14T17:24:36;1.95;;;0.38;;
4246;SDS011;2137;52.564;10.062;2022-09-14T17:24:53;1.88;;;0.30;;
4246;SDS011;2137;52.564;10.062;2022-09-14T17:25:11;2.20;;;0.30;;
4246;SDS011;2137;52.564;10.062;2022-09-14T17:25:32;2.67;;;0.30;;
4246;SDS011;2137;52.564;10.062;2022-09-14T17:25:48;2.25;;;0.28;;
4246;SDS011;2137;52.564;10.062;2022-09-14T17:26:06;1.00;;;0.30;;
4246;SDS011;2137;52.564;10.062;2022-09-14T17:26:23;2.20;;;0.35;;
4246;SDS011;2137;52.564;10.062;2022-09-14T17:26:40;1.77;;;0.20;;
4246;SDS011;2137;52.564;10.062;2022-09-14T17:26:57;1.30;;;0.20;;
4246;SDS011;2137;52.564;10.062;2022-09-14T17:27:14;1.30;;;0.22;;
4246;SDS011;2137;52.564;10.062;2022-09-14T17:27:31;1.60;;;0.30;;
4246;SDS011;2137;52.564;10.062;2022-09-14T17:27:47;1.05;;;0.38;;
4246;SDS011;2137;52.564;10.062;2022-09-14T17:28:06;1.40;;;0.35;;
4246;SDS011;2137;52.564;10.062;2022-09-14T17:28:23;2.65;;;0.40;;
4246;SDS011;2137;52.564;10.062;2022-09-14T17:28:40;2.20;;;0.30;;
4246;SDS011;2137;52.564;10.062;2022-09-14T17:28:59;1.65;;;0.20;;
4246;SDS011;2137;52.564;10.062;2022-09-14T17:29:16;1.75;;;0.20;;
4246;SDS011;2137;52.564;10.062;2022-09-14T17:29:34;1.00;;;0.13;;
4246;SDS011;2137;52.564;10.062;2022-09-14T17:29:54;1.08;;;0.20;;
4246;SDS011;2137;52.564;10.062;2022-09-14T17:30:11;0.77;;;0.20;;
4246;SDS011;2137;52.564;10.062;2022-09-14T17:30:28;0.63;;;0.20;;
4246;SDS011;2137;52.564;10.062;2022-09-14T17:30:45;1.20;;;0.35;;
4246;SDS011;2137;52.564;10.062;2022-09-14T17:31:03;1.45;;;0.38;;
4246;SDS011;2137;52.564;10.062;2022-09-14T17:31:21;1.38;;;0.20;;
4246;SDS011;2137;52.564;10.062;2022-09-14T17:31:39;2.10;;;0.30;;
4246;SDS011;2137;52.564;10.062;2022-09-14T17:31:56;1.77;;;0.47;;
4246;SDS011;2137;52.564;10.062;2022-09-14T17:32:14;1.25;;;0.55;;
4246;SDS011;2137;52.564;10.062;2022-09-14T17:32:30;1.52;;;0.40;;
4246;SDS011;2137;52.564;10.062;2022-09-14T17:32:48;3.28;;;0.45;;
4246;SDS011;2137;52.564;10.062;2022-09-14T17:33:05;4.05;;;0.45;;
4246;SDS011;2137;52.564;10.062;2022-09-14T17:33:22;4.38;;;0.30;;
4246;SDS011;2137;52.564;10.062;2022-09-14T17:33:38;2.20;;;0.30;;
4246;SDS011;2137;52.564;10.062;2022-09-14T17:33:56;1.15;;;0.20;;
4246;SDS011;2137;52.564;10.062;2022-09-14T17:34:14;1.42;;;0.30;;
4246;SDS011;2137;52.564;10.062;2022-09-14T17:34:32;1.75;;;0.43;;
4246;SDS011;2137;52.564;10.062;2022-09-14T17:34:48;2.00;;;0.30;;
4246;SDS011;2137;52.564;10.062;2022-09-14T17:35:05;2.40;;;0.30;;
4246;SDS011;2137;52.564;10.062;2022-09-14T17:35:23;1.90;;;0.30;;
4246;SDS011;2137;52.564;10.062;2022-09-14T17:35:44;0.68;;;0.30;;
4246;SDS011;2137;52.564;10.062;2022-09-14T17:36:01;2.13;;;0.32;;
4246;SDS011;2137;52.564;10.062;2022-09-14T17:36:18;1.30;;;0.22;;
4246;SDS011;2137;52.564;10.062;2022-09-14T17:36:35;0.73;;;0.20;;
4246;SDS011;2137;52.564;10.062;2022-09-14T17:36:53;0.43;;;0.20;;
4246;SDS011;2137;52.564;10.062;2022-09-14T17:37:09;1.48;;;0.30;;
4246;SDS011;2137;52.564;10.062;2022-09-14T17:37:27;2.55;;;0.35;;
4246;SDS011;2137;52.564;10.062;2022-09-14T17:37:43;1.90;;;0.30;;
4246;SDS011;2137;52.564;10.062;2022-09-14T17:38:00;0.95;;;0.20;;
4246;SDS011;2137;52.564;10.062;2022-09-14T17:38:16;1.98;;;0.90;;
4246;SDS011;2137;52.564;10.062;2022-09-14T17:38:35;1.67;;;0.90;;
4246;SDS011;2137;52.564;10.062;2022-09-14T17:38:53;2.58;;;0.20;;
4246;SDS011;2137;52.564;10.062;2022-09-14T17:39:10;3.47;;;0.30;;
4246;SDS011;2137;52.564;10.062;2022-09-14T17:39:28;1.65;;;0.22;;
4246;SDS011;2137;52.564;10.062;2022-09-14T17:39:44;3.30;;;0.38;;
4246;SDS011;2137;52.564;10.062;2022-09-14T17:40:02;1.90;;;0.40;;
4246;SDS011;2137;52.564;10.062;2022-09-14T17:40:20;1.33;;;0.22;;
4246;SDS011;2137;52.564;10.062;2022-09-14T17:40:37;2.47;;;0.32;;
4246;SDS011;2137;52.564;10.062;2022-09-14T17:40:58;0.98;;;0.20;;
4246;SDS011;2137;52.564;10.062;2022-09-14T17:41:16;1.42;;;0.35;;
4246;SDS011;2137;52.564;10.062;2022-09-14T17:41:33;0.95;;;0.45;;
4246;SDS011;2137;52.564;10.062;2022-09-14T17:41:53;4.43;;;0.30;;
4246;SDS011;2137;52.564;10.062;2022-09-14T17:42:10;5.30;;;0.40;;
4246;SDS011;2137;52.564;10.062;2022-09-14T17:42:26;1.67;;;0.38;;
4246;SDS011;2137;52.564;10.062;2022-09-14T17:42:43;2.13;;;0.20;;
4246;SDS011;2137;52.564;10.062;2022-09-14T17:43:01;0.93;;;0.10;;
4246;SDS011;2137;52.564;10.062;2022-09-14T17:43:19;0.90;;;0.20;;
4246;SDS011;2137;52.564;10.062;2022-09-14T17:43:36;1.23;;;0.30;;
4246;SDS011;2137;52.564;10.062;2022-09-14T17:43:54;1.08;;;0.40;;
4246;SDS011;2137;52.564;10.062;2022-09-14T17:44:11;2.00;;;0.50;;
4246;SDS011;2137;52.564;10.062;2022-09-14T17:44:29;1.50;;;0.50;;
4246;SDS011;2137;52.564;10.062;2022-09-14T17:44:46;2.20;;;0.40;;
4246;SDS011;2137;52.564;10.062;2022-09-14T17:45:05;2.64;;;0.30;;
4246;SDS011;2137;52.564;10.062;2022-09-14T17:45:22;1.98;;;0.30;;
4246;SDS011;2137;52.564;10.062;2022-09-14T17:45:38;1.20;;;0.28;;
4246;SDS011;2137;52.564;10.062;2022-09-14T17:45:55;2.30;;;0.40;;
4246;SDS011;2137;52.564;10.062;2022-09-14T17:46:12;1.52;;;0.20;;
4246;SDS011;2137;52.564;10.062;2022-09-14T17:46:31;1.50;;;0.30;;
4246;SDS011;2137;52.564;10.062;2022-09-14T17:46:48;1.70;;;0.30;;
4246;SDS011;2137;52.564;10.062;2022-09-14T17:47:08;0.52;;;0.20;;
4246;SDS011;2137;52.564;10.062;2022-09-14T17:47:25;2.75;;;0.40;;
4246;SDS011;2137;52.564;10.062;2022-09-14T17:47:41;2.75;;;0.22;;
4246;SDS011;2137;52.564;10.062;2022-09-14T17:47:59;1.80;;;0.30;;
4246;SDS011;2137;52.564;10.062;2022-09-14T17:48:15;2.60;;;0.60;;
4246;SDS011;2137;52.564;10.062;2022-09-14T17:48:37;1.60;;;0.50;;
4246;SDS011;2137;52.564;10.062;2022-09-14T17:48:55;0.60;;;0.20;;
4246;SDS011;2137;52.564;10.062;2022-09-14T17:49:11;1.08;;;0.30;;
4246;SDS011;2137;52.564;10.062;2022-09-14T17:49:29;2.13;;;0.90;;
4246;SDS011;2137;52.564;10.062;2022-09-14T17:49:46;3.10;;;0.40;;
4246;SDS011;2137;52.564;10.062;2022-09-14T17:50:02;2.20;;;0.30;;
4246;SDS011;2137;52.564;10.062;2022-09-14T17:50:20;0.77;;;0.30;;
4246;SDS011;2137;52.564;10.062;2022-09-14T17:50:38;0.85;;;0.28;;
4246;SDS011;2137;52.564;10.062;2022-09-14T17:50:55;1.10;;;0.30;;
4246;SDS011;2137;52.564;10.062;2022-09-14T17:51:13;1.60;;;0.35;;
4246;SDS011;2137;52.564;10.062;2022-09-14T17:51:32;1.85;;;0.35;;
4246;SDS011;2137;52.564;10.062;2022-09-14T17:51:51;1.90;;;0.43;;
4246;SDS011;2137;52.564;10.062;2022-09-14T17:52:08;2.62;;;0.50;;
4246;SDS011;2137;52.564;10.062;2022-09-14T17:52:24;1.60;;;0.30;;
4246;SDS011;2137;52.564;10.062;2022-09-14T17:52:42;1.80;;;0.20;;
4246;SDS011;2137;52.564;10.062;2022-09-14T17:52:58;2.75;;;0.30;;
4246;SDS011;2137;52.564;10.062;2022-09-14T17:53:15;1.92;;;0.22;;
4246;SDS011;2137;52.564;10.062;2022-09-14T17:53:35;1.02;;;0.35;;
4246;SDS011;2137;52.564;10.062;2022-09-14T17:53:52;2.58;;;0.68;;
4246;SDS011;2137;52.564;10.062;2022-09-14T17:54:08;1.38;;;0.35;;
4246;SDS011;2137;52.564;10.062;2022-09-14T17:54:26;1.05;;;0.30;;
4246;SDS011;2137;52.564;10.062;2022-09-14T17:54:43;1.30;;;0.44;;
4246;SDS011;2137;52.564;10.062;2022-09-14T17:54:59;0.90;;;0.43;;
4246;SDS011;2137;52.564;10.062;2022-09-14T17:55:16;1.10;;;0.40;;
4246;SDS011;2137;52.564;10.062;2022-09-14T17:55:33;1.20;;;0.30;;
4246;SDS011;2137;52.564;10.062;2022-09-14T17:55:49;0.40;;;0.20;;
4246;SDS011;2137;52.564;10.062;2022-09-14T17:56:08;0.30;;;0.10;;
4246;SDS011;2137;52.564;10.062;2022-09-14T17:56:25;2.55;;;0.30;;
4246;SDS011;2137;52.564;10.062;2022-09-14T17:56:42;2.83;;;0.30;;
4246;SDS011;2137;52.564;10.062;2022-09-14T17:56:59;0.80;;;0.30;;
4246;SDS011;2137;52.564;10.062;2022-09-14T17:57:16;1.15;;;0.40;;
4246;SDS011;2137;52.564;10.062;2022-09-14T17:57:33;1.50;;;0.45;;
4246;SDS011;2137;52.564;10.062;2022-09-14T17:57:50;2.83;;;0.50;;
4246;SDS011;2137;52.564;10.062;2022-09-14T17:58:07;3.58;;;0.60;;
4246;SDS011;2137;52.564;10.062;2022-09-14T17:58:25;1.55;;;0.63;;
4246;SDS011;2137;52.564;10.062;2022-09-14T17:58:42;1.30;;;0.50;;
4246;SDS011;2137;52.564;10.062;2022-09-14T17:59:01;1.92;;;0.55;;
4246;SDS011;2137;52.564;10.062;2022-09-14T17:59:19;1.70;;;0.50;;
4246;SDS011;2137;52.564;10.062;2022-09-14T17:59:36;2.22;;;0.77;;
4246;SDS011;2137;52.564;10.062;2022-09-14T17:59:52;3.00;;;0.80;;
4246;SDS011;2137;52.564;10.062;2022-09-14T18:00:09;4.03;;;0.65;;
4246;SDS011;2137;52.564;10.062;2022-09-14T18:00:26;2.17;;;0.60;;
4246;SDS011;2137;52.564;10.062;2022-09-14T18:00:44;1.73;;;0.52;;
4246;SDS011;2137;52.564;10.062;2022-09-14T18:01:02;3.05;;;0.43;;
4246;SDS011;2137;52.564;10.062;2022-09-14T18:01:20;4.45;;;0.60;;
4246;SDS011;2137;52.564;10.062;2022-09-14T18:01:38;3.22;;;0.60;;
4246;SDS011;2137;52.564;10.062;2022-09-14T18:01:55;1.25;;;0.28;;
4246;SDS011;2137;52.564;10.062;2022-09-14T18:02:12;1.15;;;0.20;;
4246;SDS011;2137;52.564;10.062;2022-09-14T18:02:29;1.70;;;0.20;;
4246;SDS011;2137;52.564;10.062;2022-09-14T18:02:48;1.76;;;0.24;;
4246;SDS011;2137;52.564;10.062;2022-09-14T18:03:05;1.42;;;0.50;;
4246;SDS011;2137;52.564;10.062;2022-09-14T18:03:21;1.10;;;0.30;;
4246;SDS011;2137;52.564;10.062;2022-09-14T18:03:40;1.20;;;0.35;;
4246;SDS011;2137;52.564;10.062;2022-09-14T18:03:58;0.98;;;0.40;;
4246;SDS011;2137;52.564;10.062;2022-09-14T18:04:15;1.40;;;0.43;;
4246;SDS011;2137;52.564;10.062;2022-09-14T18:04:33;2.00;;;0.32;;
4246;SDS011;2137;52.564;10.062;2022-09-14T18:04:50;1.73;;;0.35;;
4246;SDS011;2137;52.564;10.062;2022-09-14T18:05:07;2.10;;;0.50;;
4246;SDS011;2137;52.564;10.062;2022-09-14T18:05:23;2.47;;;0.50;;
4246;SDS011;2137;52.564;10.062;2022-09-14T18:05:40;1.80;;;0.40;;
4246;SDS011;2137;52.564;10.062;2022-09-14T18:05:57;1.42;;;0.30;;
4246;SDS011;2137;52.564;10.062;2022-09-14T18:06:14;0.90;;;0.30;;
4246;SDS011;2137;52.564;10.062;2022-09-14T18:06:32;1.05;;;0.40;;
4246;SDS011;2137;52.564;10.062;2022-09-14T18:06:49;1.83;;;0.63;;
4246;SDS011;2137;52.564;10.062;2022-09-14T18:07:07;2.92;;;0.60;;
4246;SDS011;2137;52.564;10.062;2022-09-14T18:07:24;2.58;;;0.43;;
4246;SDS011;2137;52.564;10.062;2022-09-14T18:07:41;1.27;;;0.47;;
4246;SDS011;2137;52.564;10.062;2022-09-14T18:07:57;1.60;;;0.50;;
4246;SDS011;2137;52.564;10.062;2022-09-14T18:08:14;2.00;;;0.50;;
4246;SDS011;2137;52.564;10.062;2022-09-14T18:08:30;2.67;;;0.30;;
4246;SDS011;2137;52.564;10.062;2022-09-14T18:08:51;3.10;;;0.30;;
4246;SDS011;2137;52.564;10.062;2022-09-14T18:09:09;0.77;;;0.30;;
4246;SDS011;2137;52.564;10.062;2022-09-14T18:09:26;0.50;;;0.20;;
4246;SDS011;2137;52.564;10.062;2022-09-14T18:09:43;1.40;;;0.20;;
4246;SDS011;2137;52.564;10.062;2022-09-14T18:09:59;1.65;;;0.30;;
4246;SDS011;2137;52.564;10.062;2022-09-14T18:10:17;1.15;;;0.40;;
4246;SDS011;2137;52.564;10.062;2022-09-14T18:10:35;1.20;;;0.30;;
4246;SDS011;2137;52.564;10.062;2022-09-14T18:10:51;0.90;;;0.30;;
4246;SDS011;2137;52.564;10.062;2022-09-14T18:11:09;1.58;;;0.43;;
4246;SDS011;2137;52.564;10.062;2022-09-14T18:11:26;2.75;;;0.50;;
4246;SDS011;2137;52.564;10.062;2022-09-14T18:11:44;0.98;;;0.30;;
4246;SDS011;2137;52.564;10.062;2022-09-14T18:12:01;0.90;;;0.40;;
4246;SDS011;2137;52.564;10.062;2022-09-14T18:12:18;1.15;;;0.30;;
4246;SDS011;2137;52.564;10.062;2022-09-14T18:12:35;1.65;;;0.28;;
4246;SDS011;2137;52.564;10.062;2022-09-14T18:12:54;1.63;;;0.35;;
4246;SDS011;2137;52.564;10.062;2022-09-14T18:13:10;1.10;;;0.40;;
4246;SDS011;2137;52.564;10.062;2022-09-14T18:13:29;2.92;;;0.45;;
4246;SDS011;2137;52.564;10.062;2022-09-14T18:13:46;3.00;;;0.50;;
4246;SDS011;2137;52.564;10.062;2022-09-14T18:14:05;1.58;;;0.30;;